Terminal Aerodrome Forecast
Issued by NWS Wilmington, NC

Home | Current Version | Previous Version | Text Only | Print | Product List | Glossary On
Versions: 1 2 3 4 5 6 7 8 9 10 11 12 13 14 15 16 17 18 19 20 21 22 23 24 25 26 27 28
000
FTUS42 KILM 220900 AAB
TAFFLO
TAF AMD
KFLO 220954Z 2210/2306 VRB03KT 1/4SM FG VV002
      TEMPO 2210/2214 VRB02KT 3/4SM BR OVC002
     FM221400 08005KT P6SM VCSH SCT020 BKN040
     FM221800 13007KT P6SM -SHRA BKN040 BKN150=

USA.gov is the U.S. government's official web portal to all federal, state and local government web resources and services.